createdAt,value
2022-08-11T00:02:00.166Z,22.24
2022-08-11T00:04:27.742Z,22.20
2022-08-11T00:06:55.002Z,22.14
2022-08-11T00:09:31.617Z,22.12
2022-08-11T00:12:13.986Z,22.06
2022-08-11T00:14:40.997Z,22.06
2022-08-11T00:17:15.818Z,22.02
2022-08-11T00:20:13.298Z,21.99
2022-08-11T00:22:34.761Z,21.96
2022-08-11T00:25:10.200Z,21.91
2022-08-11T00:27:39.536Z,21.88
2022-08-11T00:30:08.377Z,21.82
2022-08-11T00:32:37.574Z,21.79
2022-08-11T00:35:54.097Z,21.78
2022-08-11T00:37:56.929Z,21.74
2022-08-11T00:40:32.883Z,21.69
2022-08-11T00:43:23.886Z,21.60
2022-08-11T00:46:20.653Z,21.62
2022-08-11T00:49:13.959Z,21.55
2022-08-11T00:52:34.424Z,21.48
2022-08-11T00:55:26.433Z,21.47
2022-08-11T00:58:48.346Z,21.39
2022-08-11T01:01:17.677Z,21.39
2022-08-11T01:04:02.911Z,21.34
2022-08-11T01:06:51.884Z,21.31
2022-08-11T01:09:54.832Z,21.28
2022-08-11T01:12:36.335Z,21.26
2022-08-11T01:15:24.529Z,21.21
2022-08-11T01:17:57.090Z,21.19
2022-08-11T01:20:49.405Z,21.13
2022-08-11T01:23:41.181Z,21.12
2022-08-11T01:27:02.796Z,21.05
2022-08-11T01:30:06.703Z,21.02
2022-08-11T01:32:45.134Z,20.99
2022-08-11T01:35:42.494Z,20.94
2022-08-11T01:38:29.305Z,20.89
2022-08-11T01:41:25.355Z,20.84
2022-08-11T01:44:29.431Z,20.83
2022-08-11T01:47:53.212Z,20.80
2022-08-11T01:51:04.035Z,20.73
2022-08-11T01:53:33.671Z,20.72
2022-08-11T01:56:16.931Z,20.70
2022-08-11T01:59:08.266Z,20.65
2022-08-11T02:02:04.237Z,20.60
2022-08-11T02:04:42.227Z,20.59
2022-08-11T02:07:26.209Z,20.55
2022-08-11T02:10:35.280Z,20.51
2022-08-11T02:13:16.970Z,20.48
2022-08-11T02:16:08.163Z,20.44
2022-08-11T02:18:59.058Z,20.44
2022-08-11T02:21:57.031Z,20.39
2022-08-11T02:24:44.809Z,20.33
2022-08-11T02:27:38.619Z,20.31
2022-08-11T02:30:09.956Z,20.27
2022-08-11T02:33:09.074Z,20.26
2022-08-11T02:35:49.301Z,20.24
2022-08-11T02:38:30.838Z,20.19
2022-08-11T02:41:33.993Z,20.16
2022-08-11T02:44:16.401Z,20.13
2022-08-11T02:47:09.394Z,20.10
2022-08-11T02:50:06.192Z,20.07
2022-08-11T02:52:50.691Z,20.04
2022-08-11T02:55:56.461Z,20.01
2022-08-11T02:58:36.549Z,19.99
2022-08-11T03:01:23.332Z,19.94
2022-08-11T03:03:55.230Z,19.93
2022-08-11T03:06:35.694Z,19.89
2022-08-11T03:09:11.060Z,19.88
2022-08-11T03:12:14.604Z,19.83
2022-08-11T03:15:17.484Z,19.77
2022-08-11T03:18:16.400Z,19.77
2022-08-11T03:20:49.555Z,19.71
2022-08-11T03:23:47.356Z,19.70
2022-08-11T03:26:26.260Z,19.66
2022-08-11T03:29:10.593Z,19.62
2022-08-11T03:31:55.746Z,19.61
2022-08-11T03:34:26.004Z,19.57
2022-08-11T03:37:48.432Z,19.54
2022-08-11T03:40:55.718Z,19.47
2022-08-11T03:43:29.395Z,19.48
2022-08-11T03:46:06.502Z,19.44
2022-08-11T03:48:48.934Z,19.41
2022-08-11T03:51:25.031Z,19.39
2022-08-11T03:54:16.409Z,19.33
2022-08-11T03:57:09.250Z,19.35
2022-08-11T03:59:51.251Z,19.29
2022-08-11T04:02:50.574Z,19.25
2022-08-11T04:05:47.687Z,19.23
2022-08-11T04:08:51.805Z,19.19
2022-08-11T04:11:27.635Z,19.15
2022-08-11T04:14:44.913Z,19.16
2022-08-11T04:17:47.630Z,19.11
2022-08-11T04:20:43.424Z,19.07
2022-08-11T04:24:35.793Z,19.05
2022-08-11T04:26:57.673Z,19.01
2022-08-11T04:30:01.983Z,18.98
2022-08-11T04:32:55.220Z,18.95
2022-08-11T04:35:52.766Z,18.92
2022-08-11T04:38:48.994Z,18.89
2022-08-11T04:41:57.024Z,18.86
2022-08-11T04:44:35.331Z,18.84
2022-08-11T04:48:04.504Z,18.82
2022-08-11T04:51:20.483Z,18.82
2022-08-11T04:54:18.600Z,18.82
2022-08-11T04:57:06.452Z,18.77
2022-08-11T05:00:16.261Z,18.76
2022-08-11T05:03:27.670Z,18.74
2022-08-11T05:06:38.805Z,18.72
2022-08-11T05:09:20.514Z,18.73
2022-08-11T05:12:07.869Z,18.71
2022-08-11T05:14:59.564Z,18.72
2022-08-11T05:18:18.534Z,18.74
2022-08-11T05:21:15.532Z,18.72
2022-08-11T05:24:12.504Z,18.76
2022-08-11T05:27:04.653Z,18.76
2022-08-11T05:30:03.273Z,18.78
2022-08-11T05:33:00.891Z,18.79
2022-08-11T05:36:02.435Z,18.82
2022-08-11T05:38:51.402Z,18.83
2022-08-11T05:41:40.163Z,18.86
2022-08-11T05:44:25.505Z,18.88
2022-08-11T05:47:10.530Z,18.91
2022-08-11T05:49:58.183Z,18.97
2022-08-11T05:52:49.229Z,18.99
2022-08-11T05:56:03.130Z,19.06
2022-08-11T05:58:42.395Z,19.09
2022-08-11T06:01:13.543Z,19.14
2022-08-11T06:04:03.081Z,19.19
2022-08-11T06:06:30.486Z,19.23
2022-08-11T06:08:59.519Z,19.27
2022-08-11T06:11:43.190Z,19.29
2022-08-11T06:14:12.302Z,19.37
2022-08-11T06:16:42.049Z,19.40
2022-08-11T06:19:10.351Z,19.42
2022-08-11T06:21:37.877Z,19.45
2022-08-11T06:24:11.258Z,19.51
2022-08-11T06:27:01.225Z,19.53
2022-08-11T06:29:37.893Z,19.55
2022-08-11T06:32:14.531Z,19.57
2022-08-11T06:34:59.694Z,19.61
2022-08-11T06:38:23.480Z,19.64
2022-08-11T06:41:13.731Z,19.68
2022-08-11T06:44:05.962Z,19.70
2022-08-11T06:46:39.271Z,19.74
2022-08-11T06:49:28.147Z,19.76
2022-08-11T06:52:01.827Z,19.82
2022-08-11T06:54:35.254Z,19.86
2022-08-11T06:57:30.508Z,19.86
2022-08-11T07:00:17.324Z,19.93
2022-08-11T07:03:09.138Z,19.94
2022-08-11T07:06:11.104Z,19.99
2022-08-11T07:09:29.266Z,20.01
2022-08-11T07:12:26.585Z,20.07
2022-08-11T07:15:13.959Z,20.12
2022-08-11T07:18:09.613Z,20.15
2022-08-11T07:21:01.417Z,20.21
2022-08-11T07:23:52.963Z,20.26
2022-08-11T07:26:40.469Z,20.29
2022-08-11T07:29:09.836Z,20.31
2022-08-11T07:31:50.102Z,20.36
2022-08-11T07:34:22.605Z,20.43
2022-08-11T07:37:17.964Z,20.45
2022-08-11T07:39:46.596Z,20.50
2022-08-11T07:42:23.896Z,20.54
2022-08-11T07:45:11.104Z,20.59
2022-08-11T07:47:57.989Z,20.63
2022-08-11T07:50:43.985Z,20.68
2022-08-11T07:53:13.022Z,20.72
2022-08-11T07:55:51.483Z,20.76
2022-08-11T07:58:45.545Z,20.82
2022-08-11T08:01:45.929Z,20.83
2022-08-11T08:04:33.471Z,20.87
2022-08-11T08:07:22.052Z,20.91
2022-08-11T08:10:07.902Z,20.99
2022-08-11T08:12:54.352Z,21.00
2022-08-11T08:15:41.250Z,21.10
2022-08-11T08:18:26.751Z,21.13
2022-08-11T08:20:56.593Z,21.17
2022-08-11T08:23:35.321Z,21.23
2022-08-11T08:26:04.608Z,21.29
2022-08-11T08:28:33.528Z,21.33
2022-08-11T08:31:00.503Z,21.36
2022-08-11T08:33:30.350Z,21.45
2022-08-11T08:36:12.425Z,21.50
2022-08-11T08:38:41.571Z,21.55
2022-08-11T08:41:09.946Z,21.60
2022-08-11T08:43:49.047Z,21.62
2022-08-11T08:46:20.646Z,21.70
2022-08-11T08:48:49.112Z,21.75
2022-08-11T08:51:54.874Z,21.80
2022-08-11T08:54:29.015Z,21.85
2022-08-11T08:56:57.249Z,21.87
2022-08-11T08:59:27.366Z,21.88
2022-08-11T09:02:14.220Z,22.00
2022-08-11T09:04:44.551Z,22.08
2022-08-11T09:07:13.399Z,22.08
2022-08-11T09:09:51.953Z,22.13
2022-08-11T09:12:38.385Z,22.23
2022-08-11T09:15:09.155Z,22.28
2022-08-11T09:17:40.799Z,22.30
2022-08-11T09:20:21.485Z,22.33
2022-08-11T09:26:17.782Z,22.44
2022-08-11T09:28:45.743Z,22.44
2022-08-11T09:31:14.243Z,22.48
2022-08-11T09:33:42.906Z,22.55
2022-08-11T09:36:30.416Z,22.62
2022-08-11T09:39:16.625Z,22.65
2022-08-11T09:41:55.735Z,22.68
2022-08-11T09:44:49.397Z,22.68
2022-08-11T09:47:28.575Z,22.73
2022-08-11T09:50:00.147Z,22.75
2022-08-11T09:52:28.784Z,22.79
2022-08-11T09:54:55.615Z,22.89
2022-08-11T09:57:41.755Z,22.95
2022-08-11T10:00:13.593Z,23.00
2022-08-11T10:02:49.380Z,23.02
2022-08-11T10:05:37.774Z,23.08
2022-08-11T10:08:07.300Z,23.17
2022-08-11T10:10:38.922Z,23.19
2022-08-11T10:14:09.263Z,23.22
2022-08-11T10:16:16.271Z,23.30
2022-08-11T10:18:52.829Z,23.36
2022-08-11T10:21:28.942Z,23.36
2022-08-11T10:24:17.207Z,23.40
2022-08-11T10:26:52.295Z,23.43
2022-08-11T10:29:44.478Z,23.49
2022-08-11T10:32:49.369Z,23.55
2022-08-11T10:35:26.388Z,23.52
2022-08-11T10:38:05.747Z,23.63
2022-08-11T10:40:35.805Z,23.66
2022-08-11T10:43:03.618Z,23.67
2022-08-11T10:45:50.282Z,23.73
2022-08-11T10:48:21.073Z,23.78
2022-08-11T10:51:08.145Z,23.80
2022-08-11T10:53:54.898Z,23.84
2022-08-11T10:56:40.746Z,23.93
2022-08-11T10:59:09.264Z,23.95
2022-08-11T11:01:42.524Z,23.98
2022-08-11T11:04:21.208Z,24.01
2022-08-11T11:07:03.688Z,24.06
2022-08-11T11:09:33.099Z,24.07
2022-08-11T11:12:39.541Z,24.08
2022-08-11T11:15:25.734Z,24.13
2022-08-11T11:17:56.282Z,24.14
2022-08-11T11:20:37.022Z,24.18
2022-08-11T11:23:10.137Z,24.22
2022-08-11T11:26:06.487Z,24.24
2022-08-11T11:28:51.716Z,24.26
2022-08-11T11:31:50.993Z,24.28
2022-08-11T11:34:37.894Z,24.29
2022-08-11T11:37:20.849Z,24.35
2022-08-11T11:39:47.991Z,24.35
2022-08-11T11:42:16.509Z,24.39
2022-08-11T11:44:45.116Z,24.45
2022-08-11T11:47:13.203Z,24.53
2022-08-11T11:49:43.864Z,24.54
2022-08-11T11:52:21.033Z,24.50
2022-08-11T11:54:50.365Z,24.55
2022-08-11T11:57:36.996Z,24.63
2022-08-11T12:00:33.183Z,24.63
2022-08-11T12:03:03.158Z,24.67
2022-08-11T12:05:33.602Z,24.70
2022-08-11T12:08:16.038Z,24.74
2022-08-11T12:11:28.665Z,24.74
2022-08-11T12:13:58.519Z,24.82
2022-08-11T12:16:34.806Z,24.86
2022-08-11T12:19:06.053Z,24.92
2022-08-11T12:21:35.005Z,24.94
2022-08-11T12:24:21.008Z,24.96
2022-08-11T12:27:15.152Z,24.98
2022-08-11T12:29:35.474Z,25.06
2022-08-11T12:32:07.189Z,25.11
2022-08-11T12:34:33.855Z,25.12
2022-08-11T12:37:05.614Z,25.21
2022-08-11T12:40:16.573Z,25.21
2022-08-11T12:43:03.996Z,25.20
2022-08-11T12:45:38.567Z,25.24
2022-08-11T12:48:58.915Z,25.28
2022-08-11T12:52:13.120Z,25.32
2022-08-11T12:54:27.419Z,25.37
2022-08-11T12:57:24.118Z,25.36
2022-08-11T13:00:26.464Z,25.30
2022-08-11T13:03:13.666Z,25.37
2022-08-11T13:05:45.040Z,25.37
2022-08-11T13:08:15.319Z,25.42
2022-08-11T13:11:01.702Z,25.49
2022-08-11T13:13:53.762Z,25.54
2022-08-11T13:16:17.715Z,25.51
2022-08-11T13:18:45.060Z,25.52
2022-08-11T13:21:20.547Z,25.51
2022-08-11T13:23:59.679Z,25.54
2022-08-11T13:26:47.517Z,25.58
2022-08-11T13:29:26.242Z,25.57
2022-08-11T13:31:55.866Z,25.57
2022-08-11T13:34:25.268Z,25.59
2022-08-11T13:36:54.193Z,25.61
2022-08-11T13:39:24.620Z,25.62
2022-08-11T13:41:53.409Z,25.61
2022-08-11T13:44:25.535Z,25.63
2022-08-11T13:46:56.335Z,25.68
2022-08-11T13:49:24.223Z,25.70
2022-08-11T13:51:51.953Z,25.74
2022-08-11T13:54:22.611Z,25.76
2022-08-11T13:56:53.527Z,25.74
2022-08-11T13:59:22.922Z,25.76
2022-08-11T14:02:21.416Z,25.77
2022-08-11T14:04:55.865Z,25.81
2022-08-11T14:07:25.694Z,25.77
2022-08-11T14:09:59.772Z,25.77
2022-08-11T14:12:46.446Z,25.71
2022-08-11T14:15:27.646Z,25.79
2022-08-11T14:18:01.589Z,25.82
2022-08-11T14:20:50.845Z,25.81
2022-08-11T14:23:19.440Z,25.85
2022-08-11T14:26:15.622Z,25.89
2022-08-11T14:28:45.117Z,25.88
2022-08-11T14:31:16.080Z,25.91
2022-08-11T14:34:00.346Z,25.94
2022-08-11T14:36:35.223Z,25.96
2022-08-11T14:39:05.780Z,26.01
2022-08-11T14:42:07.620Z,26.02
2022-08-11T14:44:57.740Z,26.04
2022-08-11T14:47:25.891Z,26.08
2022-08-11T14:50:10.762Z,26.11
2022-08-11T14:52:44.739Z,26.05
2022-08-11T14:55:31.378Z,26.07
2022-08-11T14:57:58.887Z,26.16
2022-08-11T15:00:26.569Z,26.15
2022-08-11T15:03:13.511Z,26.18
2022-08-11T15:06:02.166Z,26.17
2022-08-11T15:08:50.482Z,26.20
2022-08-11T15:11:38.058Z,26.16
2022-08-11T15:14:07.531Z,26.17
2022-08-11T15:16:54.605Z,26.17
2022-08-11T15:19:21.597Z,26.25
2022-08-11T15:22:08.980Z,26.29
2022-08-11T15:24:36.566Z,26.29
2022-08-11T15:27:27.303Z,26.30
2022-08-11T15:30:29.923Z,26.33
2022-08-11T15:33:20.219Z,26.39
2022-08-11T15:36:05.672Z,26.39
2022-08-11T15:38:36.237Z,26.44
2022-08-11T15:41:24.071Z,26.46
2022-08-11T15:44:13.244Z,26.50
2022-08-11T15:46:44.617Z,26.55
2022-08-11T15:50:11.501Z,26.55
2022-08-11T15:52:21.234Z,26.63
2022-08-11T15:54:49.175Z,26.71
2022-08-11T15:57:40.083Z,26.70
2022-08-11T16:00:26.570Z,26.74
2022-08-11T16:02:55.087Z,26.76
2022-08-11T16:05:46.030Z,26.82
2022-08-11T16:08:13.223Z,26.86
2022-08-11T16:10:42.414Z,26.90
2022-08-11T16:13:13.335Z,26.99
2022-08-11T16:16:04.080Z,27.02
2022-08-11T16:18:43.432Z,27.06
2022-08-11T16:21:34.053Z,27.10
2022-08-11T16:24:06.117Z,27.17
2022-08-11T16:27:10.332Z,27.19
2022-08-11T16:29:25.308Z,27.25
2022-08-11T16:32:14.459Z,27.29
2022-08-11T16:35:02.279Z,27.34
2022-08-11T16:37:49.816Z,27.40
2022-08-11T16:40:17.583Z,27.43
2022-08-11T16:43:11.381Z,27.53
2022-08-11T16:45:58.687Z,27.58
2022-08-11T16:48:35.006Z,27.63
2022-08-11T16:51:03.855Z,27.70
2022-08-11T16:53:49.010Z,27.75
2022-08-11T16:56:24.740Z,27.83
2022-08-11T16:59:13.344Z,27.87
2022-08-11T17:01:41.971Z,27.95
2022-08-11T17:04:53.894Z,27.93
2022-08-11T17:07:43.202Z,27.99
2022-08-11T17:10:52.641Z,28.00
2022-08-11T17:13:27.916Z,28.05
2022-08-11T17:16:10.022Z,28.08
2022-08-11T17:18:57.749Z,28.10
2022-08-11T17:21:57.741Z,28.05
2022-08-11T17:24:27.533Z,28.06
2022-08-11T17:26:56.951Z,28.08
2022-08-11T17:29:53.827Z,28.08
2022-08-11T17:32:56.669Z,28.02
2022-08-11T17:35:34.133Z,28.01
2022-08-11T17:38:12.883Z,27.99
2022-08-11T17:41:01.685Z,28.04
2022-08-11T17:43:48.845Z,28.01
2022-08-11T17:46:37.590Z,28.00
2022-08-11T17:49:08.223Z,27.93
2022-08-11T17:51:56.016Z,27.91
2022-08-11T17:54:43.579Z,27.92
2022-08-11T17:57:30.423Z,27.94
2022-08-11T17:59:57.969Z,27.96
2022-08-11T18:02:51.691Z,27.88
2022-08-11T18:05:21.542Z,27.88
2022-08-11T18:08:10.197Z,27.87
2022-08-11T18:10:57.444Z,27.84
2022-08-11T18:13:43.666Z,27.83
2022-08-11T18:16:30.038Z,27.77
2022-08-11T18:19:15.796Z,27.76
2022-08-11T18:22:14.812Z,27.70
2022-08-11T18:25:12.426Z,27.65
2022-08-11T18:28:00.868Z,27.61
2022-08-11T18:30:49.936Z,27.55
2022-08-11T18:34:05.969Z,27.53
2022-08-11T18:36:49.452Z,27.45
2022-08-11T18:39:38.455Z,27.39
2022-08-11T18:42:29.592Z,27.43
2022-08-11T18:45:19.774Z,27.31
2022-08-11T18:48:09.271Z,27.31
2022-08-11T18:51:00.674Z,27.31
2022-08-11T18:54:09.248Z,27.20
2022-08-11T18:56:54.609Z,27.18
2022-08-11T18:59:44.300Z,27.12
2022-08-11T19:02:31.277Z,27.08
2022-08-11T19:05:18.828Z,27.05
2022-08-11T19:08:26.245Z,26.99
2022-08-11T19:11:14.249Z,26.96
2022-08-11T19:14:03.971Z,26.92
2022-08-11T19:16:51.127Z,26.87
2022-08-11T19:19:38.119Z,26.82
2022-08-11T19:22:23.981Z,26.82
2022-08-11T19:25:10.512Z,26.75
2022-08-11T19:27:58.197Z,26.73
2022-08-11T19:30:45.006Z,26.69
2022-08-11T19:34:03.092Z,26.64
2022-08-11T19:36:37.285Z,26.61
2022-08-11T19:39:23.088Z,26.57
2022-08-11T19:42:08.732Z,26.55
2022-08-11T19:44:54.064Z,26.52
2022-08-11T19:47:40.952Z,26.45
2022-08-11T19:50:27.212Z,26.43
2022-08-11T19:53:16.891Z,26.38
2022-08-11T19:56:05.432Z,26.34
2022-08-11T19:58:52.317Z,26.32
2022-08-11T20:01:37.952Z,26.28
2022-08-11T20:04:43.506Z,26.20
2022-08-11T20:07:32.288Z,26.15
2022-08-11T20:10:22.442Z,26.12
2022-08-11T20:13:08.841Z,26.06
2022-08-11T20:15:57.707Z,26.04
2022-08-11T20:18:44.653Z,25.99
2022-08-11T20:21:33.501Z,25.96
2022-08-11T20:24:20.757Z,25.91
2022-08-11T20:27:07.347Z,25.88
2022-08-11T20:30:07.239Z,25.80
2022-08-11T20:32:54.441Z,25.78
2022-08-11T20:35:40.210Z,25.74
2022-08-11T20:38:28.098Z,25.71
2022-08-11T20:41:16.269Z,25.67
2022-08-11T20:44:05.660Z,25.62
2022-08-11T20:46:58.229Z,25.57
2022-08-11T20:49:53.834Z,25.54
2022-08-11T20:52:49.783Z,25.50
2022-08-11T20:55:52.142Z,25.45
2022-08-11T21:01:52.114Z,25.37
2022-08-11T21:04:54.355Z,25.33
2022-08-11T21:07:55.619Z,25.28
2022-08-11T21:10:51.140Z,25.25
2022-08-11T21:13:41.395Z,25.21
2022-08-11T21:16:31.763Z,25.16
2022-08-11T21:19:59.688Z,25.09
2022-08-11T21:22:58.565Z,25.06
2022-08-11T21:25:48.088Z,25.02
2022-08-11T21:28:36.878Z,24.96
2022-08-11T21:31:24.928Z,24.93
2022-08-11T21:34:11.008Z,24.90
2022-08-11T21:36:58.755Z,24.86
2022-08-11T21:39:46.054Z,24.80
2022-08-11T21:42:32.127Z,24.77
2022-08-11T21:45:18.992Z,24.73
2022-08-11T21:48:04.925Z,24.70
2022-08-11T21:50:50.004Z,24.62
2022-08-11T21:53:36.457Z,24.62
2022-08-11T21:56:22.630Z,24.57
2022-08-11T21:59:14.803Z,24.52
2022-08-11T22:02:00.734Z,24.51
2022-08-11T22:04:46.545Z,24.46
2022-08-11T22:07:31.826Z,24.45
2022-08-11T22:10:40.783Z,24.38
2022-08-11T22:13:30.516Z,24.36
2022-08-11T22:16:19.158Z,24.31
2022-08-11T22:19:10.519Z,24.28
2022-08-11T22:22:03.593Z,24.24
2022-08-11T22:24:51.265Z,24.21
2022-08-11T22:27:36.550Z,24.18
2022-08-11T22:30:23.345Z,24.15
2022-08-11T22:33:09.049Z,24.11
2022-08-11T22:35:54.283Z,24.08
2022-08-11T22:38:40.448Z,24.03
2022-08-11T22:41:25.535Z,23.99
2022-08-11T22:44:10.585Z,23.96
2022-08-11T22:46:55.712Z,23.90
2022-08-11T22:49:57.061Z,23.88
2022-08-11T22:52:43.892Z,23.82
2022-08-11T22:55:29.217Z,23.81
2022-08-11T22:58:14.708Z,23.76
2022-08-11T23:01:00.495Z,23.71
2022-08-11T23:03:46.007Z,23.65
2022-08-11T23:06:32.913Z,23.64
2022-08-11T23:09:19.421Z,23.60
2022-08-11T23:12:06.672Z,23.55
2022-08-11T23:14:57.544Z,23.48
2022-08-11T23:17:43.582Z,23.47
2022-08-11T23:20:39.105Z,23.40
2022-08-11T23:23:27.054Z,23.38
2022-08-11T23:26:14.270Z,23.35
2022-08-11T23:29:05.059Z,23.29
2022-08-11T23:31:53.375Z,23.25
2022-08-11T23:35:37.343Z,23.22
2022-08-11T23:37:48.684Z,23.16
2022-08-11T23:40:34.144Z,23.09
2022-08-11T23:43:19.966Z,23.07
2022-08-11T23:46:04.929Z,23.05
2022-08-11T23:48:50.791Z,23.01
2022-08-11T23:51:40.793Z,22.94
2022-08-11T23:54:27.365Z,22.93
2022-08-11T23:57:13.232Z,22.88
2022-08-11T23:59:58.077Z,22.84
